createdAt,value
2023-03-07T00:06:40.977Z,12.65
2023-03-07T00:17:02.655Z,13.02
2023-03-07T00:27:24.057Z,10.65
2023-03-07T00:37:45.312Z,13.73
2023-03-07T00:48:06.793Z,14.93
2023-03-07T00:58:30.502Z,12.85
2023-03-07T01:08:51.992Z,13.95
2023-03-07T01:19:13.281Z,13.73
2023-03-07T01:29:35.407Z,13.50
2023-03-07T01:39:56.651Z,12.55
2023-03-07T01:50:19.084Z,13.48
2023-03-07T02:00:42.062Z,12.07
2023-03-07T02:11:03.960Z,13.40
2023-03-07T02:21:49.728Z,10.55
2023-03-07T02:32:11.116Z,11.73
2023-03-07T02:42:34.083Z,13.18
2023-03-07T02:53:00.138Z,12.50
2023-03-07T03:03:21.785Z,12.73
2023-03-07T03:13:43.256Z,15.18
2023-03-07T03:24:09.160Z,12.32
2023-03-07T03:34:31.981Z,10.75
2023-03-07T03:44:53.328Z,12.02
2023-03-07T03:55:14.939Z,14.45
2023-03-07T04:05:36.328Z,13.75
2023-03-07T04:15:58.054Z,12.50
2023-03-07T04:26:19.750Z,13.73
2023-03-07T04:36:40.982Z,13.23
2023-03-07T04:47:02.514Z,11.50
2023-03-07T04:57:27.111Z,13.32
2023-03-07T05:07:49.262Z,13.02
2023-03-07T05:18:11.055Z,12.80
2023-03-07T05:28:32.450Z,13.95
2023-03-07T05:38:56.496Z,11.50
2023-03-07T05:49:19.135Z,12.00
2023-03-07T05:59:40.803Z,12.65
2023-03-07T06:10:02.262Z,11.98
2023-03-07T06:20:23.505Z,10.57
2023-03-07T06:30:48.278Z,11.63
2023-03-07T06:41:10.252Z,11.40
2023-03-07T06:51:32.243Z,11.50
2023-03-07T07:01:54.485Z,10.93
2023-03-07T07:12:19.049Z,13.63
2023-03-07T07:22:41.346Z,12.90
2023-03-07T07:33:03.915Z,12.95
2023-03-07T07:43:25.082Z,12.98
2023-03-07T07:54:02.763Z,17.35
2023-03-07T08:04:24.007Z,14.35
2023-03-07T08:14:45.087Z,14.95
2023-03-07T08:25:11.166Z,14.05
2023-03-07T08:35:32.402Z,13.37
2023-03-07T08:45:53.600Z,14.10
2023-03-07T08:56:17.385Z,14.02
2023-03-07T09:06:38.788Z,11.45
2023-03-07T09:17:00.281Z,12.48
2023-03-07T09:27:21.824Z,14.10
2023-03-07T09:37:42.797Z,13.38
2023-03-07T09:48:10.384Z,13.05
2023-03-07T09:58:31.861Z,13.45
2023-03-07T10:08:53.918Z,11.70
2023-03-07T10:19:23.963Z,10.57
2023-03-07T10:29:51.415Z,9.35
2023-03-07T10:40:34.954Z,8.93
2023-03-07T10:51:02.403Z,11.95
2023-03-07T11:01:25.642Z,8.57
2023-03-07T11:11:59.516Z,7.82
2023-03-07T11:22:20.765Z,9.20
2023-03-07T11:32:58.731Z,7.13
2023-03-07T11:43:23.398Z,7.20
2023-03-07T11:54:14.543Z,8.40
2023-03-07T12:04:54.801Z,9.55
2023-03-07T12:15:32.801Z,8.30
2023-03-07T12:25:59.268Z,8.52
2023-03-07T12:36:43.432Z,6.82
2023-03-07T12:47:12.473Z,7.47
2023-03-07T12:57:37.866Z,8.02
2023-03-07T13:08:00.645Z,6.90
2023-03-07T13:18:27.932Z,8.35
2023-03-07T13:28:51.520Z,5.93
2023-03-07T13:39:38.265Z,4.97
2023-03-07T13:49:59.549Z,6.63
2023-03-07T14:00:28.356Z,9.45
2023-03-07T14:10:50.063Z,8.10
2023-03-07T14:21:18.022Z,5.80
2023-03-07T14:31:42.026Z,5.15
2023-03-07T14:42:18.464Z,5.40
2023-03-07T14:52:39.326Z,5.85
2023-03-07T15:03:08.503Z,4.75
2023-03-07T15:13:41.771Z,5.75
2023-03-07T15:24:03.352Z,6.00
2023-03-07T15:34:28.706Z,5.18
2023-03-07T15:44:54.992Z,4.80
2023-03-07T15:55:20.880Z,4.78
2023-03-07T16:05:42.213Z,5.40
2023-03-07T16:16:07.599Z,5.03
2023-03-07T16:26:28.735Z,6.00
2023-03-07T16:36:50.074Z,6.22
2023-03-07T16:47:18.181Z,9.38
2023-03-07T16:57:40.513Z,5.82
2023-03-07T17:08:01.876Z,6.68
2023-03-07T17:18:23.479Z,6.25
2023-03-07T17:28:45.347Z,7.75
2023-03-07T17:39:09.120Z,5.35
2023-03-07T17:49:35.433Z,6.97
2023-03-07T17:59:56.717Z,6.57
2023-03-07T18:10:17.889Z,7.38
2023-03-07T18:20:39.253Z,8.32
2023-03-07T18:31:07.475Z,8.05
2023-03-07T18:41:29.226Z,6.13
2023-03-07T18:51:50.441Z,7.60
2023-03-07T19:02:11.754Z,7.30
2023-03-07T19:12:32.784Z,7.70
2023-03-07T19:22:54.686Z,8.40
2023-03-07T19:33:15.692Z,8.50
2023-03-07T19:43:37.147Z,10.32
2023-03-07T19:53:58.821Z,7.82
2023-03-07T20:04:19.820Z,6.40
2023-03-07T20:14:43.339Z,7.75
2023-03-07T20:25:05.078Z,6.80
2023-03-07T20:35:26.285Z,7.97
2023-03-07T20:45:47.435Z,6.53
2023-03-07T20:56:08.413Z,5.95
2023-03-07T21:06:29.450Z,7.82
2023-03-07T21:16:50.789Z,7.22
2023-03-07T21:27:12.147Z,7.65
2023-03-07T21:37:35.457Z,6.18
2023-03-07T21:47:56.946Z,7.57
2023-03-07T21:58:19.441Z,7.65
2023-03-07T22:08:40.878Z,6.78
2023-03-07T22:19:02.216Z,8.05
2023-03-07T22:29:23.497Z,6.68
2023-03-07T22:39:44.450Z,6.20
2023-03-07T22:50:06.891Z,7.05
2023-03-07T23:00:28.552Z,7.25
2023-03-07T23:10:49.527Z,5.80
2023-03-07T23:21:12.994Z,6.00
2023-03-07T23:31:36.740Z,8.25
2023-03-07T23:41:57.910Z,6.15
2023-03-07T23:52:19.260Z,4.35
